Tuscarora Heights, Pennsylvania
Current Conditions -  °F | °C
As of 4:53 AM on Sunday 25 Jan 2015 (Local Time) from KHGR Reporting Station
Overcast Overcast  
Wind Chill: 33°   Ceiling: 3400
Heat Index: 37°   Visibility: 10mi
Dew Point: 27°   Wind: 5mph
Humidity: 67%   Direction: 210°SSW
Pressure: 29.7"   Gusts: NA
Location:  39.9814°N, 77.8809°W
Report Text: KHGR 250953Z AUTO 21004KT 10SM OVC034 03/M03 A2970 RMK AO2 SLP073 T00281028
Loading
Personal Weather Stations






























Interactive Weather Map New forecast layout! Learn more

10-Day Weather Forecast

Advertisements
Track Severe Weather on mobile